Time;durP1;ratioP1;P1;durP2;ratioP2;P2;SDS_P1;SDS_P2;PMS_P1;PMS_P2;Temp;Humidity;BMP_temperature;BMP_pressure;BME280_temperature;BME280_humidity;BME280_pressure;Samples;Min_cycle;Max_cycle;Signal;HPM_P1;HPM_P2
2022/12/08 00:02:03;;;;;;;6.05;2.10;;;2.20;99.90;;;;;;5072281;28;20024;-33
2022/12/08 00:09:20;;;;;;;4.53;2.08;;;2.20;99.90;;;;;;5072281;28;20116;-33
2022/12/08 00:09:58;;;;;;;;;;;2.30;99.90;;;;;;5061467;28;20047;-32
2022/12/08 00:12:24;;;;;;;2.28;1.70;;;2.30;99.90;;;;;;5072191;28;19916;-32
2022/12/08 00:14:50;;;;;;;3.05;1.75;;;2.30;99.90;;;;;;5071551;28;20128;-32
2022/12/08 00:17:16;;;;;;;3.47;1.58;;;2.40;99.90;;;;;;5071938;28;20037;-33
2022/12/08 00:19:43;;;;;;;5.80;1.70;;;2.40;99.90;;;;;;5071581;28;20036;-33
2022/12/08 00:22:10;;;;;;;4.28;1.60;;;2.40;99.90;;;;;;5071138;28;20120;-33
2022/12/08 00:24:40;;;;;;;3.72;1.55;;;2.30;99.90;;;;;;5072134;28;20497;-33
2022/12/08 00:27:08;;;;;;;4.00;1.40;;;2.30;99.90;;;;;;5072076;28;20043;-32
2022/12/08 00:29:34;;;;;;;5.28;1.45;;;2.30;99.90;;;;;;5071238;28;20101;-33
2022/12/08 00:31:59;;;;;;;4.18;1.45;;;2.20;99.90;;;;;;5071450;28;20117;-33
2022/12/08 00:34:25;;;;;;;3.85;1.55;;;2.20;99.90;;;;;;5071801;28;20036;-32
2022/12/08 00:36:51;;;;;;;4.40;1.52;;;2.10;99.90;;;;;;5071254;28;20051;-34
2022/12/08 00:39:17;;;;;;;6.03;1.40;;;2.10;99.90;;;;;;5054343;28;20032;-33
2022/12/08 00:44:27;;;;;;;;;;;2.00;99.90;;;;;;5073073;28;20097;-33
2022/12/08 00:46:53;;;;;;;3.20;1.45;;;1.90;99.90;;;;;;5071209;28;19920;-34
2022/12/08 00:49:19;;;;;;;2.88;2.00;;;1.90;99.90;;;;;;5070721;28;20119;-33
2022/12/08 00:51:45;;;;;;;3.70;1.80;;;1.90;99.90;;;;;;5070733;28;20114;-32
2022/12/08 00:54:11;;;;;;;3.15;1.90;;;1.80;99.90;;;;;;5071091;28;20028;-33
2022/12/08 00:56:37;;;;;;;4.55;2.10;;;1.80;99.90;;;;;;5071443;28;20028;-32
2022/12/08 00:59:04;;;;;;;4.80;2.08;;;1.80;99.90;;;;;;5053902;28;20314;-33
2022/12/08 01:01:30;;;;;;;4.45;2.40;;;1.70;99.90;;;;;;5071358;28;20039;-33
2022/12/08 01:03:56;;;;;;;7.80;2.60;;;1.70;99.90;;;;;;5071066;28;20466;-33
2022/12/08 01:06:22;;;;;;;6.13;2.40;;;1.70;99.90;;;;;;5070620;28;20040;-33
2022/12/08 01:08:48;;;;;;;3.80;2.58;;;1.70;99.90;;;;;;5071058;28;20124;-32
2022/12/08 01:11:16;;;;;;;3.50;2.72;;;1.70;99.90;;;;;;5066474;28;20112;-33
2022/12/08 01:13:42;;;;;;;3.95;3.15;;;1.70;99.90;;;;;;5070866;28;20045;-33
2022/12/08 01:16:08;;;;;;;5.47;3.60;;;1.70;99.90;;;;;;5070727;28;20500;-34
2022/12/08 01:18:35;;;;;;;4.88;3.45;;;1.60;99.90;;;;;;5070705;28;20032;-32
2022/12/08 01:21:03;;;;;;;5.68;3.53;;;1.60;99.90;;;;;;5062302;28;20068;-33
2022/12/08 01:23:29;;;;;;;5.72;3.75;;;1.60;99.90;;;;;;5070655;28;20125;-33
2022/12/08 01:25:54;;;;;;;7.40;3.85;;;1.60;99.90;;;;;;5070818;28;20103;-34
2022/12/08 01:28:20;;;;;;;6.05;4.20;;;1.60;99.90;;;;;;5066747;28;20074;-33
2022/12/08 01:30:46;;;;;;;8.40;4.18;;;1.50;99.90;;;;;;5062981;28;20036;-32
2022/12/08 01:33:12;;;;;;;8.75;4.22;;;1.50;99.90;;;;;;5070479;28;20063;-32
2022/12/08 01:35:39;;;;;;;6.95;4.25;;;1.50;99.90;;;;;;5070144;28;20029;-34
2022/12/08 01:38:04;;;;;;;8.63;5.00;;;1.60;99.90;;;;;;5070394;28;20044;-32
2022/12/08 01:40:30;;;;;;;7.90;5.32;;;1.60;99.90;;;;;;5070659;28;20473;-34
2022/12/08 01:42:56;;;;;;;7.70;4.65;;;1.60;99.90;;;;;;5070292;28;20452;-33
2022/12/08 01:45:26;;;;;;;7.15;4.60;;;1.60;99.90;;;;;;5071890;28;20036;-33
2022/12/08 01:47:58;;;;;;;6.50;4.70;;;1.60;99.90;;;;;;5070361;28;20305;-32
2022/12/08 01:50:24;;;;;;;6.90;5.53;;;1.60;99.90;;;;;;5070314;28;20036;-32
2022/12/08 01:52:54;;;;;;;9.38;5.55;;;1.70;99.90;;;;;;5070629;28;20443;-33
2022/12/08 01:55:25;;;;;;;9.40;5.63;;;1.80;99.90;;;;;;5070647;28;20040;-33
2022/12/08 01:57:55;;;;;;;10.02;5.88;;;1.80;99.90;;;;;;5056628;28;20035;-32
2022/12/08 02:00:24;;;;;;;8.55;5.22;;;1.90;99.90;;;;;;5053238;28;20123;-32
2022/12/08 02:02:56;;;;;;;9.32;5.47;;;1.90;99.90;;;;;;5070066;28;20131;-33
2022/12/08 02:05:25;;;;;;;5.93;4.80;;;1.90;99.90;;;;;;5070508;28;20068;-32
2022/12/08 02:07:52;;;;;;;11.13;5.88;;;2.00;99.90;;;;;;5070154;28;20389;-32
2022/12/08 02:10:21;;;;;;;7.00;5.88;;;2.00;99.90;;;;;;5069937;28;20467;-33
2022/12/08 02:12:50;;;;;;;6.88;5.53;;;2.10;99.90;;;;;;5069951;28;20040;-34
2022/12/08 02:15:17;;;;;;;8.23;5.45;;;2.10;99.90;;;;;;5070228;28;20040;-33
2022/12/08 02:18:12;;;;;;;8.75;5.80;;;2.20;99.90;;;;;;5070037;28;20041;-33
2022/12/08 02:20:59;;;;;;;10.25;5.80;;;2.20;99.90;;;;;;5068968;28;20143;-33
2022/12/08 02:23:40;;;;;;;7.60;4.93;;;2.20;99.90;;;;;;5068899;28;20474;-33
2022/12/08 02:26:17;;;;;;;11.77;5.25;;;2.30;99.90;;;;;;5069540;28;20052;-34
2022/12/08 02:28:46;;;;;;;8.57;5.53;;;2.40;99.90;;;;;;5066578;28;20505;-34
2022/12/08 02:31:36;;;;;;;8.70;5.60;;;2.40;99.90;;;;;;5069532;28;20040;-34
2022/12/08 02:34:05;;;;;;;7.88;5.43;;;2.50;99.90;;;;;;5063764;28;20040;-34
2022/12/08 02:36:49;;;;;;;7.85;5.22;;;2.50;99.90;;;;;;5069878;28;20037;-34
2022/12/08 02:39:27;;;;;;;8.23;5.07;;;2.60;99.90;;;;;;5068876;28;20408;-34
2022/12/08 02:42:07;;;;;;;8.35;5.05;;;2.60;99.90;;;;;;5069423;28;20063;-34
2022/12/08 02:44:42;;;;;;;5.97;3.92;;;2.70;99.90;;;;;;5069169;28;20033;-34
2022/12/08 02:47:12;;;;;;;6.80;4.20;;;2.70;99.90;;;;;;5072884;28;20489;-34
2022/12/08 02:49:38;;;;;;;7.57;4.50;;;2.70;99.90;;;;;;5070208;28;20044;-34
2022/12/08 02:52:11;;;;;;;6.45;4.30;;;2.70;99.90;;;;;;5068456;28;20086;-34
2022/12/08 02:54:42;;;;;;;7.80;4.13;;;2.70;99.90;;;;;;5070078;28;20060;-34
2022/12/08 02:57:26;;;;;;;6.75;4.10;;;2.80;99.90;;;;;;5066942;28;20071;-34
2022/12/08 03:00:00;;;;;;;6.25;4.38;;;2.80;99.90;;;;;;5069007;28;20032;-34
2022/12/08 03:02:26;;;;;;;8.95;4.35;;;2.80;99.90;;;;;;5073030;28;20071;-34
2022/12/08 03:05:39;;;;;;;9.52;4.80;;;2.90;99.90;;;;;;5071737;28;20083;-34
2022/12/08 03:08:23;;;;;;;7.40;4.78;;;2.90;99.90;;;;;;5068348;28;20046;-34
2022/12/08 03:11:00;;;;;;;9.27;5.07;;;2.90;99.90;;;;;;5071972;28;20429;-34
2022/12/08 03:13:35;;;;;;;8.75;5.05;;;3.00;99.90;;;;;;5071905;28;20057;-34
2022/12/08 03:16:03;;;;;;;10.52;5.80;;;3.00;99.90;;;;;;5072893;28;20039;-34
2022/12/08 03:18:32;;;;;;;8.25;5.63;;;3.00;99.90;;;;;;5071642;28;20032;-34
2022/12/08 03:20:59;;;;;;;8.68;5.68;;;2.90;99.90;;;;;;5072896;28;20037;-34
2022/12/08 03:23:25;;;;;;;12.52;6.50;;;3.00;99.90;;;;;;5072607;28;20032;-35
2022/12/08 03:26:10;;;;;;;10.48;6.80;;;2.90;99.90;;;;;;5072272;28;20170;-34
2022/12/08 03:28:37;;;;;;;22.20;10.18;;;2.90;99.90;;;;;;5070150;28;20111;-34
2022/12/08 03:31:08;;;;;;;41.50;17.42;;;3.00;99.90;;;;;;5072453;28;20044;-34
2022/12/08 03:33:37;;;;;;;27.83;14.07;;;3.00;99.90;;;;;;5072403;28;20041;-35
2022/12/08 03:36:06;;;;;;;13.13;9.90;;;3.00;99.90;;;;;;5068939;28;20107;-34
2022/12/08 03:38:43;;;;;;;10.93;7.57;;;3.00;99.90;;;;;;5072123;28;20041;-34
2022/12/08 03:41:18;;;;;;;11.48;7.55;;;3.00;99.90;;;;;;5072096;28;20036;-34
2022/12/08 03:43:53;;;;;;;10.80;7.65;;;3.00;99.90;;;;;;5064902;28;20033;-34
2022/12/08 03:46:24;;;;;;;13.50;9.15;;;3.00;99.90;;;;;;5071565;28;20068;-34
2022/12/08 03:48:50;;;;;;;11.98;9.63;;;3.00;99.90;;;;;;5071966;28;20043;-34
2022/12/08 03:51:16;;;;;;;11.73;8.40;;;2.90;99.90;;;;;;5071862;28;20393;-34
2022/12/08 03:53:42;;;;;;;9.98;8.07;;;2.90;99.90;;;;;;5072398;28;20115;-34
2022/12/08 03:56:36;;;;;;;9.18;8.27;;;2.90;99.90;;;;;;5071950;28;20029;-34
2022/12/08 03:59:03;;;;;;;9.75;7.38;;;2.90;99.90;;;;;;5063012;28;20041;-34
2022/12/08 04:01:29;;;;;;;10.32;8.50;;;2.90;99.90;;;;;;5070347;28;20035;-34
2022/12/08 04:03:55;;;;;;;10.98;7.85;;;2.90;99.90;;;;;;5071505;28;20044;-34
2022/12/08 04:06:21;;;;;;;12.55;8.38;;;2.90;99.90;;;;;;5071850;28;20037;-34
2022/12/08 04:08:47;;;;;;;9.00;7.68;;;3.00;99.90;;;;;;5050987;28;20068;-34
2022/12/08 04:11:13;;;;;;;10.45;7.85;;;3.00;99.90;;;;;;5072193;28;20543;-35
2022/12/08 04:13:40;;;;;;;11.75;8.73;;;3.00;99.90;;;;;;5068710;28;20098;-34
2022/12/08 04:16:07;;;;;;;14.10;8.20;;;3.00;99.90;;;;;;5071315;28;20469;-34
2022/12/08 04:18:34;;;;;;;11.15;8.88;;;3.00;99.90;;;;;;5069770;28;20044;-34
2022/12/08 04:21:00;;;;;;;13.60;7.82;;;3.00;99.90;;;;;;5070459;28;20032;-34
2022/12/08 04:23:26;;;;;;;10.02;8.35;;;3.00;99.90;;;;;;5071249;28;20040;-34
2022/12/08 04:25:52;;;;;;;10.55;8.27;;;3.10;99.90;;;;;;5071570;28;20036;-34
2022/12/08 04:28:18;;;;;;;12.77;8.48;;;3.10;99.90;;;;;;5070838;28;21185;-35
2022/12/08 04:30:46;;;;;;;10.80;8.45;;;3.10;99.90;;;;;;5070907;28;20040;-34
2022/12/08 04:33:12;;;;;;;11.40;8.52;;;3.10;99.90;;;;;;5071199;28;20033;-34
2022/12/08 04:35:37;;;;;;;8.52;6.40;;;3.10;99.90;;;;;;5068795;28;20025;-34
2022/12/08 04:38:03;;;;;;;7.70;6.47;;;3.10;99.90;;;;;;5070974;28;20101;-34
2022/12/08 04:40:29;;;;;;;10.07;7.15;;;3.10;99.90;;;;;;5069747;28;20393;-35
2022/12/08 04:42:55;;;;;;;10.95;6.97;;;3.10;99.90;;;;;;5066926;28;20040;-35
2022/12/08 04:45:20;;;;;;;12.00;7.85;;;3.20;99.90;;;;;;5068225;28;20114;-34
2022/12/08 04:47:46;;;;;;;11.93;8.00;;;3.20;99.90;;;;;;5054012;28;20040;-34
2022/12/08 04:50:12;;;;;;;10.95;7.60;;;3.20;99.90;;;;;;5070036;28;20087;-34
2022/12/08 04:52:38;;;;;;;10.48;7.60;;;3.20;99.90;;;;;;5053811;28;20041;-35
2022/12/08 04:55:04;;;;;;;13.13;7.50;;;3.20;99.90;;;;;;5062548;28;20041;-34
2022/12/08 04:57:30;;;;;;;10.70;7.82;;;3.20;99.90;;;;;;5070363;28;20032;-35
2022/12/08 04:59:55;;;;;;;11.18;7.30;;;3.20;99.90;;;;;;5070079;28;20043;-35
2022/12/08 05:02:21;;;;;;;12.15;7.32;;;3.20;99.90;;;;;;5071847;28;20501;-35
2022/12/08 05:04:48;;;;;;;8.73;6.10;;;3.20;99.90;;;;;;5069956;28;20075;-34
2022/12/08 05:07:14;;;;;;;9.70;6.57;;;3.20;99.90;;;;;;5070274;28;20093;-35
2022/12/08 05:09:39;;;;;;;7.32;5.90;;;3.20;99.90;;;;;;5069328;28;20048;-35
2022/12/08 05:12:05;;;;;;;7.38;5.32;;;3.10;99.90;;;;;;5070058;28;20040;-34
2022/12/08 05:14:31;;;;;;;6.43;5.03;;;3.10;99.90;;;;;;5065983;28;20036;-34
2022/12/08 05:16:57;;;;;;;6.07;5.00;;;3.10;99.90;;;;;;5069679;28;20402;-35
2022/12/08 05:19:22;;;;;;;6.97;5.25;;;3.10;99.90;;;;;;5069483;28;20028;-34
2022/12/08 05:21:48;;;;;;;5.90;4.90;;;3.10;99.90;;;;;;5061579;28;20032;-34
2022/12/08 05:24:14;;;;;;;8.82;5.50;;;3.10;99.90;;;;;;5069204;28;20455;-35
2022/12/08 05:26:40;;;;;;;11.70;6.45;;;3.10;99.90;;;;;;5070054;28;20038;-34
2022/12/08 05:29:05;;;;;;;8.77;6.55;;;3.10;99.90;;;;;;5069055;28;20040;-34
2022/12/08 05:31:31;;;;;;;9.90;5.72;;;3.10;99.90;;;;;;5069954;28;20045;-35
2022/12/08 05:33:57;;;;;;;8.60;6.10;;;3.10;99.90;;;;;;5070151;28;20032;-34
2022/12/08 05:36:23;;;;;;;5.70;4.93;;;3.10;99.90;;;;;;5070150;28;20034;-35
2022/12/08 05:38:48;;;;;;;6.55;5.28;;;3.10;99.90;;;;;;5070624;28;20456;-35
2022/12/08 05:41:17;;;;;;;7.60;5.57;;;3.10;99.90;;;;;;5070378;28;20082;-35
2022/12/08 05:43:44;;;;;;;8.70;6.38;;;3.10;99.90;;;;;;5069944;28;20468;-34
2022/12/08 05:46:10;;;;;;;14.60;7.93;;;3.10;99.90;;;;;;5069858;28;20120;-35
2022/12/08 05:48:36;;;;;;;8.35;5.90;;;3.10;99.90;;;;;;5069716;28;20082;-35
2022/12/08 05:51:02;;;;;;;10.73;6.88;;;3.00;99.90;;;;;;5069737;28;20363;-34
2022/12/08 05:53:28;;;;;;;14.77;8.57;;;3.10;99.90;;;;;;5069868;28;20040;-35
2022/12/08 05:55:54;;;;;;;9.02;5.72;;;3.00;99.90;;;;;;5069720;28;20226;-35
2022/12/08 05:58:21;;;;;;;10.75;6.75;;;3.00;99.90;;;;;;5069739;28;20051;-35
2022/12/08 06:00:48;;;;;;;10.85;6.82;;;3.00;99.90;;;;;;5069637;28;20035;-35
2022/12/08 06:03:16;;;;;;;12.68;6.95;;;3.00;99.90;;;;;;5067655;28;20032;-35
2022/12/08 06:05:43;;;;;;;9.02;6.50;;;3.00;99.90;;;;;;5063678;28;20456;-34
2022/12/08 06:08:10;;;;;;;8.52;6.22;;;3.00;99.90;;;;;;5052641;28;20039;-35
2022/12/08 06:10:40;;;;;;;9.50;6.07;;;3.00;99.90;;;;;;5069191;28;20040;-35
2022/12/08 06:13:06;;;;;;;8.05;6.20;;;2.90;99.90;;;;;;5061512;28;20067;-35
2022/12/08 06:15:34;;;;;;;8.88;6.55;;;2.90;99.90;;;;;;5067369;28;20121;-34
2022/12/08 06:18:00;;;;;;;8.27;6.60;;;2.90;99.90;;;;;;5069663;28;20481;-35
2022/12/08 06:20:26;;;;;;;10.02;6.30;;;2.90;99.90;;;;;;5069704;28;20032;-34
2022/12/08 06:22:54;;;;;;;12.32;7.55;;;2.90;99.90;;;;;;5071933;28;20033;-34
2022/12/08 06:25:20;;;;;;;8.10;6.38;;;2.90;99.90;;;;;;5072538;28;20045;-35
2022/12/08 06:27:45;;;;;;;10.55;6.50;;;2.90;99.90;;;;;;5068343;28;20036;-34
2022/12/08 06:30:11;;;;;;;9.23;6.40;;;2.90;99.90;;;;;;5068171;28;20033;-34
2022/12/08 06:32:37;;;;;;;8.20;5.57;;;2.90;99.90;;;;;;5073513;28;20400;-35
2022/12/08 06:35:03;;;;;;;13.23;8.48;;;2.90;99.90;;;;;;5071046;28;20033;-35
2022/12/08 06:37:29;;;;;;;11.52;8.02;;;3.00;99.90;;;;;;5072974;28;20037;-34
2022/12/08 06:39:55;;;;;;;11.98;7.05;;;3.00;99.90;;;;;;5070459;28;20521;-34
2022/12/08 06:45:05;;;;;;;;;;;2.90;99.90;;;;;;5072282;28;20050;-34
2022/12/08 06:47:31;;;;;;;8.93;5.47;;;2.90;99.90;;;;;;5065952;28;20007;-34
2022/12/08 06:49:57;;;;;;;9.63;5.93;;;2.90;99.90;;;;;;5072906;28;20041;-35
2022/12/08 06:52:23;;;;;;;8.38;6.25;;;2.80;99.90;;;;;;5072769;28;20047;-35
2022/12/08 06:54:49;;;;;;;8.98;6.32;;;2.80;99.90;;;;;;5072314;28;20116;-35
2022/12/08 06:57:15;;;;;;;9.30;6.45;;;2.80;99.90;;;;;;5070954;28;20068;-35
2022/12/08 06:59:40;;;;;;;10.95;6.32;;;2.80;99.90;;;;;;5072905;28;20112;-35
2022/12/08 07:02:07;;;;;;;8.43;6.47;;;2.80;99.90;;;;;;5070449;28;20111;-35
2022/12/08 07:04:34;;;;;;;10.65;6.68;;;2.70;99.90;;;;;;5070021;28;20714;-35
2022/12/08 07:07:00;;;;;;;9.15;5.85;;;2.70;99.90;;;;;;5052472;28;20072;-35
2022/12/08 07:09:25;;;;;;;14.90;8.60;;;2.70;99.90;;;;;;5072267;28;20045;-34
2022/12/08 07:11:51;;;;;;;8.80;6.25;;;2.70;99.90;;;;;;5065846;28;20036;-34
2022/12/08 07:14:19;;;;;;;9.15;5.80;;;2.70;99.90;;;;;;5071423;28;20532;-35
2022/12/08 07:16:44;;;;;;;7.43;5.07;;;2.70;99.90;;;;;;5072828;28;20447;-35
2022/12/08 07:19:10;;;;;;;9.35;5.45;;;2.70;99.90;;;;;;5072194;28;20032;-34
2022/12/08 07:21:36;;;;;;;7.57;4.93;;;2.70;99.90;;;;;;5072389;28;20466;-34
2022/12/08 07:24:01;;;;;;;8.40;5.10;;;2.70;99.90;;;;;;5068871;28;20075;-35
2022/12/08 07:26:27;;;;;;;6.65;4.38;;;2.70;99.90;;;;;;5069892;28;20205;-34
2022/12/08 07:28:53;;;;;;;6.97;5.15;;;2.70;99.90;;;;;;5069221;28;20039;-35
2022/12/08 07:31:22;;;;;;;7.50;5.00;;;2.70;99.90;;;;;;5070640;28;20409;-34
2022/12/08 07:33:49;;;;;;;6.30;4.68;;;2.70;99.90;;;;;;5060837;28;20102;-34
2022/12/08 07:36:15;;;;;;;5.05;4.22;;;2.70;99.90;;;;;;5068265;28;20385;-34
2022/12/08 07:38:42;;;;;;;9.10;4.32;;;2.70;99.90;;;;;;5069673;28;20401;-35
2022/12/08 07:41:15;;;;;;;5.28;4.20;;;2.70;99.90;;;;;;5069731;28;20044;-35
2022/12/08 07:43:41;;;;;;;5.70;4.38;;;2.70;99.90;;;;;;5086527;28;20509;-34
2022/12/08 07:46:11;;;;;;;4.90;3.85;;;2.80;99.90;;;;;;5070973;28;20032;-34
2022/12/08 07:48:36;;;;;;;4.68;3.80;;;2.80;99.90;;;;;;5071922;28;21812;-34
2022/12/08 07:51:04;;;;;;;6.05;3.88;;;2.80;99.90;;;;;;5071137;28;20145;-35
2022/12/08 07:53:30;;;;;;;6.47;4.22;;;2.80;99.90;;;;;;5067267;28;20378;-34
2022/12/08 07:55:56;;;;;;;4.50;3.55;;;2.70;99.90;;;;;;5072077;28;20052;-34
2022/12/08 07:58:22;;;;;;;5.78;4.05;;;2.70;99.90;;;;;;5071750;28;20047;-34
2022/12/08 08:00:48;;;;;;;7.07;4.43;;;2.70;99.90;;;;;;5071416;28;20404;-34
2022/12/08 08:03:13;;;;;;;5.75;4.13;;;2.70;99.90;;;;;;5071707;28;20108;-34
2022/12/08 08:05:39;;;;;;;5.38;3.90;;;2.70;99.90;;;;;;5066353;28;20547;-35
2022/12/08 08:08:05;;;;;;;6.28;4.50;;;2.70;99.90;;;;;;5071634;28;20036;-35
2022/12/08 08:10:31;;;;;;;5.75;3.60;;;2.60;99.90;;;;;;5065789;28;20044;-34
2022/12/08 08:13:00;;;;;;;5.70;3.72;;;2.60;99.90;;;;;;5069900;28;20043;-34
2022/12/08 08:15:26;;;;;;;6.75;3.75;;;2.60;99.90;;;;;;5070645;28;20120;-34
2022/12/08 08:17:52;;;;;;;4.78;3.35;;;2.60;99.90;;;;;;5071256;28;20039;-34
2022/12/08 08:20:19;;;;;;;4.85;3.03;;;2.60;99.90;;;;;;5071063;28;20036;-34
2022/12/08 08:22:46;;;;;;;7.32;3.42;;;2.60;99.90;;;;;;5071198;28;20036;-34
2022/12/08 08:25:13;;;;;;;5.35;2.90;;;2.50;99.90;;;;;;5071130;28;20486;-34
2022/12/08 08:27:38;;;;;;;4.28;2.85;;;2.60;99.90;;;;;;5071442;28;20048;-34
2022/12/08 08:30:09;;;;;;;12.85;5.25;;;2.50;99.90;;;;;;5070713;28;20040;-34
2022/12/08 08:32:35;;;;;;;13.18;5.63;;;2.60;99.90;;;;;;5070114;28;20119;-34
2022/12/08 08:35:01;;;;;;;15.73;7.43;;;2.50;99.90;;;;;;5071154;28;20409;-35
2022/12/08 08:37:27;;;;;;;9.88;5.22;;;2.50;99.90;;;;;;5070898;28;20045;-34
2022/12/08 08:39:53;;;;;;;10.02;5.45;;;2.50;99.90;;;;;;5070899;28;20043;-34
2022/12/08 08:42:19;;;;;;;7.80;4.80;;;2.60;99.90;;;;;;5070630;28;20103;-35
2022/12/08 08:44:45;;;;;;;6.68;3.47;;;2.60;99.90;;;;;;5070270;28;20047;-34
2022/12/08 08:47:11;;;;;;;6.40;4.50;;;2.60;99.90;;;;;;5070211;28;20060;-34
2022/12/08 08:49:36;;;;;;;16.60;10.88;;;2.60;99.90;;;;;;5062855;28;20040;-34
2022/12/08 08:52:04;;;;;;;8.93;6.85;;;2.60;99.90;;;;;;5045234;28;20033;-34
2022/12/08 08:54:30;;;;;;;3.53;2.55;;;2.60;99.90;;;;;;5069340;28;20068;-34
2022/12/08 08:56:57;;;;;;;5.47;4.10;;;2.70;99.90;;;;;;5070753;28;20045;-35
2022/12/08 08:59:23;;;;;;;4.00;3.13;;;2.70;99.90;;;;;;5070465;28;20474;-34
2022/12/08 09:01:49;;;;;;;4.63;2.17;;;2.70;99.90;;;;;;5068038;28;20028;-34
2022/12/08 09:04:15;;;;;;;2.30;1.90;;;2.80;99.90;;;;;;5070620;28;20036;-34
2022/12/08 09:06:42;;;;;;;5.00;2.53;;;2.70;99.90;;;;;;5066468;28;20032;-34
2022/12/08 09:09:08;;;;;;;3.97;2.38;;;2.80;99.90;;;;;;5070422;28;20036;-34
2022/12/08 09:11:33;;;;;;;5.63;3.78;;;2.80;99.90;;;;;;5068315;28;20094;-35
2022/12/08 09:13:59;;;;;;;5.22;2.50;;;2.80;99.90;;;;;;5070148;28;20047;-34
2022/12/08 09:16:25;;;;;;;5.88;5.28;;;2.80;99.90;;;;;;5068697;28;20090;-34
2022/12/08 09:18:51;;;;;;;5.60;4.80;;;2.80;99.90;;;;;;5063855;28;20024;-35
2022/12/08 09:21:21;;;;;;;5.78;2.97;;;2.80;99.90;;;;;;5070295;28;20029;-35
2022/12/08 09:23:48;;;;;;;6.07;2.67;;;2.90;99.90;;;;;;5065788;28;20076;-34
2022/12/08 09:26:14;;;;;;;6.22;3.40;;;2.90;99.90;;;;;;5068874;28;20043;-34
2022/12/08 09:28:45;;;;;;;2.55;2.35;;;2.90;99.90;;;;;;5069944;28;20036;-35
2022/12/08 09:31:12;;;;;;;5.72;3.00;;;2.90;99.90;;;;;;5070548;28;20035;-35
2022/12/08 09:33:38;;;;;;;5.40;2.60;;;2.90;99.90;;;;;;5070254;28;20067;-34
2022/12/08 09:36:04;;;;;;;5.50;3.35;;;2.90;99.90;;;;;;5069621;28;20538;-35
2022/12/08 09:38:30;;;;;;;2.92;2.10;;;2.90;99.90;;;;;;5069850;28;20032;-34
2022/12/08 09:40:57;;;;;;;1.90;1.70;;;2.90;99.90;;;;;;5065793;28;20036;-34
2022/12/08 09:43:42;;;;;;;2.05;1.80;;;2.90;99.90;;;;;;5069209;28;20154;-34
2022/12/08 09:46:11;;;;;;;3.13;2.30;;;3.00;99.90;;;;;;5063027;28;20091;-34
2022/12/08 09:48:46;;;;;;;7.13;5.50;;;3.00;99.90;;;;;;5069388;28;20087;-35
2022/12/08 09:51:14;;;;;;;11.93;7.13;;;3.00;99.90;;;;;;5069725;28;20068;-35
2022/12/08 09:53:46;;;;;;;8.48;5.82;;;3.00;99.90;;;;;;5070020;28;20568;-35
2022/12/08 09:56:19;;;;;;;13.65;9.32;;;3.20;99.90;;;;;;5064978;28;20069;-35
2022/12/08 09:58:52;;;;;;;8.40;3.92;;;3.20;99.90;;;;;;5062546;28;20071;-35
2022/12/08 10:01:20;;;;;;;5.10;3.30;;;3.20;99.90;;;;;;5069551;28;20036;-35
2022/12/08 10:03:46;;;;;;;6.38;3.67;;;3.30;99.90;;;;;;5069690;28;20040;-35
2022/12/08 10:06:27;;;;;;;7.22;6.05;;;3.40;99.90;;;;;;5069493;28;20038;-34
2022/12/08 10:08:56;;;;;;;5.65;3.60;;;3.40;99.90;;;;;;5063287;28;20028;-35
2022/12/08 10:11:31;;;;;;;5.25;3.00;;;3.40;99.90;;;;;;5069316;28;20098;-35
2022/12/08 10:14:03;;;;;;;6.30;3.70;;;3.50;99.90;;;;;;5069763;28;20555;-35
2022/12/08 10:16:45;;;;;;;4.60;3.70;;;3.50;99.90;;;;;;5067670;28;20036;-34
2022/12/08 10:19:25;;;;;;;4.15;3.75;;;3.50;99.90;;;;;;5065857;28;20036;-35
2022/12/08 10:21:53;;;;;;;5.03;3.35;;;3.60;99.90;;;;;;5043607;28;20036;-35
2022/12/08 10:24:29;;;;;;;4.90;3.33;;;3.70;99.90;;;;;;5066222;28;20044;-35
2022/12/08 10:26:55;;;;;;;4.20;3.55;;;3.70;99.90;;;;;;5065870;28;20032;-35
2022/12/08 10:29:21;;;;;;;6.18;4.00;;;3.80;99.90;;;;;;5069579;28;20162;-35
2022/12/08 10:31:47;;;;;;;7.15;4.82;;;3.80;99.90;;;;;;5069787;28;20040;-35
2022/12/08 10:34:19;;;;;;;8.27;5.95;;;3.80;99.90;;;;;;5065226;28;20033;-35
2022/12/08 10:36:49;;;;;;;8.73;7.57;;;3.80;99.90;;;;;;5062360;28;20102;-35
2022/12/08 10:39:44;;;;;;;6.45;4.88;;;3.80;99.90;;;;;;5068203;28;20039;-35
2022/12/08 10:42:13;;;;;;;8.80;5.15;;;3.70;99.90;;;;;;5070004;28;20478;-35
2022/12/08 10:45:14;;;;;;;7.07;5.05;;;3.70;99.90;;;;;;5069316;28;20512;-35
2022/12/08 10:47:41;;;;;;;9.00;4.85;;;3.70;99.90;;;;;;5063477;28;20052;-35
2022/12/08 10:50:19;;;;;;;10.57;7.97;;;3.70;99.90;;;;;;5048195;28;20032;-35
2022/12/08 10:53:11;;;;;;;7.15;5.45;;;3.70;99.90;;;;;;5066193;28;20044;-35
2022/12/08 10:56:02;;;;;;;7.05;4.60;;;3.70;99.90;;;;;;5052678;28;20142;-35
2022/12/08 10:58:41;;;;;;;7.53;4.28;;;3.70;99.90;;;;;;5067844;28;20048;-35
2022/12/08 11:01:16;;;;;;;5.00;4.10;;;3.70;99.90;;;;;;5069002;28;20036;-35
2022/12/08 11:03:45;;;;;;;6.55;4.15;;;3.70;99.90;;;;;;5061515;28;20036;-35
2022/12/08 11:06:18;;;;;;;3.95;3.40;;;3.70;99.90;;;;;;5068339;28;20040;-35
2022/12/08 11:08:58;;;;;;;;;;;3.80;99.90;;;;;;5066155;28;20119;-35
2022/12/08 11:11:43;;;;;;;5.38;4.32;;;3.80;99.90;;;;;;5072750;28;19920;-35
2022/12/08 11:14:23;;;;;;;6.07;4.47;;;3.80;99.90;;;;;;5056036;28;20044;-35
2022/12/08 11:16:52;;;;;;;4.50;3.90;;;3.80;99.90;;;;;;5070891;28;20069;-35
2022/12/08 11:19:19;;;;;;;4.78;3.80;;;3.80;99.90;;;;;;5072738;28;20025;-34
2022/12/08 11:21:46;;;;;;;7.97;4.18;;;3.90;99.90;;;;;;5072195;28;20032;-35
2022/12/08 11:24:20;;;;;;;6.78;4.53;;;3.90;99.90;;;;;;5072487;28;20115;-35
2022/12/08 11:26:58;;;;;;;6.57;4.53;;;3.90;99.90;;;;;;5069054;28;20032;-34
2022/12/08 11:29:27;;;;;;;7.28;4.32;;;3.90;99.90;;;;;;5072342;28;20490;-35
2022/12/08 11:31:59;;;;;;;8.02;4.97;;;3.90;99.90;;;;;;5072441;28;20452;-35
2022/12/08 11:34:40;;;;;;;5.47;4.38;;;3.90;99.90;;;;;;5072480;28;20041;-35
2022/12/08 11:37:14;;;;;;;5.55;4.22;;;3.90;99.90;;;;;;5072113;28;20466;-35
2022/12/08 11:39:42;;;;;;;;;;;3.90;99.90;;;;;;5064091;28;20032;-35
2022/12/08 11:42:13;;;;;;;7.70;4.40;;;3.80;99.90;;;;;;5072347;28;19923;-35
2022/12/08 11:44:56;;;;;;;6.10;4.45;;;3.80;99.90;;;;;;5064326;28;20037;-35
2022/12/08 11:47:36;;;;;;;7.78;5.15;;;3.70;99.90;;;;;;5071841;28;20029;-35
2022/12/08 11:50:11;;;;;;;6.38;4.50;;;3.70;99.90;;;;;;5071821;28;20075;-35
2022/12/08 11:52:45;;;;;;;6.80;4.63;;;3.70;99.90;;;;;;5071928;28;20086;-34
2022/12/08 11:55:33;;;;;;;6.05;4.78;;;3.70;99.90;;;;;;5072002;28;20452;-35
2022/12/08 11:58:13;;;;;;;8.43;4.90;;;3.70;99.90;;;;;;5070384;28;20033;-35
2022/12/08 12:00:39;;;;;;;6.47;4.97;;;3.70;99.90;;;;;;5071763;28;20125;-35
2022/12/08 12:03:15;;;;;;;6.22;5.13;;;3.70;99.90;;;;;;5071239;28;20498;-35
2022/12/08 12:06:31;;;;;;;6.50;4.88;;;3.60;99.90;;;;;;5063975;28;20041;-35
2022/12/08 12:09:16;;;;;;;7.30;5.35;;;3.60;99.90;;;;;;5045961;28;20048;-35
2022/12/08 12:12:14;;;;;;;6.57;5.32;;;3.60;99.90;;;;;;5054323;28;20132;-35
2022/12/08 12:14:49;;;;;;;8.20;5.20;;;3.50;99.90;;;;;;5071245;28;20040;-34
2022/12/08 12:17:41;;;;;;;9.20;5.65;;;3.50;99.90;;;;;;5071142;28;20036;-35
2022/12/08 12:20:27;;;;;;;6.40;5.53;;;3.50;99.90;;;;;;5063746;28;20505;-35
2022/12/08 12:23:19;;;;;;;6.75;5.60;;;3.60;99.90;;;;;;5073627;28;20036;-35
2022/12/08 12:26:06;;;;;;;7.88;6.53;;;3.60;99.90;;;;;;5071066;28;20084;-35
2022/12/08 12:28:56;;;;;;;6.93;6.10;;;3.70;99.90;;;;;;5071574;28;20295;-35
2022/12/08 12:31:26;;;;;;;9.75;7.60;;;3.70;99.90;;;;;;5069911;28;20025;-34
2022/12/08 12:34:02;;;;;;;10.98;8.55;;;3.70;99.90;;;;;;5070936;28;20074;-35
2022/12/08 12:36:30;;;;;;;9.13;7.63;;;3.90;99.90;;;;;;5071294;28;20036;-35
2022/12/08 12:39:06;;;;;;;9.70;7.68;;;4.30;99.90;;;;;;5070288;28;20058;-35
2022/12/08 12:41:46;;;;;;;9.80;6.78;;;5.20;99.90;;;;;;5070444;28;20109;-35
2022/12/08 12:44:11;;;;;;;6.47;4.97;;;6.50;99.90;;;;;;5070571;28;20592;-33
2022/12/08 12:46:49;;;;;;;6.88;4.95;;;7.20;99.90;;;;;;5069742;28;20063;-34
2022/12/08 12:49:42;;;;;;;6.60;5.03;;;7.40;99.90;;;;;;5069864;28;20044;-35
2022/12/08 12:52:14;;;;;;;7.40;5.63;;;7.20;99.90;;;;;;5070897;28;20094;-35
2022/12/08 12:54:44;;;;;;;7.57;5.28;;;7.10;99.90;;;;;;5068923;28;20060;-35
2022/12/08 12:57:10;;;;;;;8.80;5.05;;;6.90;99.90;;;;;;5071128;28;20036;-35
2022/12/08 12:59:46;;;;;;;5.00;4.43;;;6.70;99.90;;;;;;5070119;28;20036;-35
2022/12/08 13:02:23;;;;;;;6.57;4.70;;;6.60;99.90;;;;;;5070683;28;20024;-35
2022/12/08 13:04:57;;;;;;;8.07;5.47;;;6.40;99.90;;;;;;5068194;28;20085;-35
2022/12/08 13:07:27;;;;;;;6.55;5.13;;;6.20;99.90;;;;;;5053629;28;20041;-35
2022/12/08 13:10:21;;;;;;;7.53;4.93;;;5.90;99.90;;;;;;5070016;28;20401;-35
2022/12/08 13:13:05;;;;;;;6.28;4.28;;;5.70;99.90;;;;;;5058414;28;20044;-35
2022/12/08 13:15:35;;;;;;;6.00;4.85;;;5.50;99.90;;;;;;5069205;28;20047;-35
2022/12/08 13:18:01;;;;;;;7.30;4.90;;;5.30;99.90;;;;;;5070215;28;20546;-35
2022/12/08 13:20:27;;;;;;;8.45;4.75;;;5.10;99.90;;;;;;5070229;28;20119;-34